TRA42A EHRD-LSZH
Flight info
| Callsign | TRA42A |
|---|---|
| Flight time | N/A |
| Altitude | 37000 |
| Route | WOODY N872 NIK M624 DIK N852 SUTAL DCT GTQ DCT POGOL DCT LASAT DCT SHARA DCT TUPOV DCT BLM |
| Aircraft | B738/M-SDE2E3FGHIRWXY/LB1 |
Departure
| Time | 2026-05-04 11:20 |
|---|---|
| Airport | Rotterdam The Hague Airport (EHRD) |
Arrival
| Time | N/A |
|---|---|
| Airport | Zürich Airport (LSZH) |
| Time | Latitude | Longitude | Altitude | Speed | Heading |
|---|---|---|---|---|---|
| 2026-05-04 10:54 | 51.95087 | 4.43431 | 0 ft | 0 kts | 327° |
| 2026-05-04 11:14 | 51.95114 | 4.43410 | 1 ft | 9 kts | 347° |
| 2026-05-04 11:16 | 51.95438 | 4.43893 | 0 ft | 22 kts | 57° |
| 2026-05-04 11:16 | 51.95550 | 4.44170 | 1 ft | 36 kts | 57° |
| 2026-05-04 11:16 | 51.95690 | 4.44519 | 0 ft | 31 kts | 57° |
| 2026-05-04 11:17 | 51.95806 | 4.44804 | 0 ft | 29 kts | 57° |
| 2026-05-04 11:17 | 51.95913 | 4.45070 | 0 ft | 27 kts | 56° |
| 2026-05-04 11:19 | 51.96235 | 4.45392 | 1 ft | 0 kts | 237° |
| 2026-05-04 11:19 | 51.96150 | 4.45178 | 2 ft | 58 kts | 237° |
| 2026-05-04 11:19 | 51.95787 | 4.44269 | -1 ft | 131 kts | 237° |
| 2026-05-04 11:19 | 51.95211 | 4.42775 | 178 ft | 173 kts | 239° |
| 2026-05-04 11:20 | 51.94586 | 4.41113 | 1142 ft | 166 kts | 250° |
| 2026-05-04 11:20 | 51.94605 | 4.39381 | 2237 ft | 160 kts | 291° |
| 2026-05-04 11:20 | 51.95043 | 4.37601 | 2765 ft | 186 kts | 290° |
| 2026-05-04 11:20 | 51.95553 | 4.35479 | 3015 ft | 217 kts | 290° |
| 2026-05-04 11:22 | 51.92752 | 4.17771 | 3280 ft | 261 kts | 194° |
| 2026-05-04 11:22 | 51.90985 | 4.17597 | 4461 ft | 243 kts | 174° |
| 2026-05-04 11:23 | 51.89436 | 4.18096 | 5998 ft | 216 kts | 162° |
| 2026-05-04 11:23 | 51.88086 | 4.19205 | 6755 ft | 227 kts | 151° |
| 2026-05-04 11:24 | 51.77921 | 4.27950 | 10495 ft | 307 kts | 154° |
| 2026-05-04 11:25 | 51.75937 | 4.29570 | 10657 ft | 332 kts | 154° |
| 2026-05-04 11:25 | 51.73796 | 4.31326 | 10810 ft | 358 kts | 155° |
| 2026-05-04 11:25 | 51.71566 | 4.33121 | 11641 ft | 356 kts | 154° |
| 2026-05-04 11:26 | 51.70314 | 4.34139 | 12107 ft | 356 kts | 154° |
| 2026-05-04 11:27 | 51.58802 | 4.40444 | 16042 ft | 359 kts | 191° |
| 2026-05-04 11:28 | 51.56461 | 4.39830 | 18133 ft | 327 kts | 191° |
| 2026-05-04 11:28 | 51.54248 | 4.39271 | 19322 ft | 322 kts | 189° |
| 2026-05-04 11:28 | 51.51969 | 4.38828 | 19700 ft | 340 kts | 188° |
| 2026-05-04 11:28 | 51.49544 | 4.38375 | 19828 ft | 360 kts | 188° |
| 2026-05-04 11:29 | 51.46985 | 4.37881 | 19950 ft | 379 kts | 188° |
| 2026-05-04 11:29 | 51.44316 | 4.37350 | 20267 ft | 391 kts | 188° |
| 2026-05-04 11:29 | 51.41597 | 4.36792 | 20919 ft | 396 kts | 190° |
| 2026-05-04 11:29 | 51.38962 | 4.35577 | 21684 ft | 396 kts | 204° |
| 2026-05-04 11:31 | 51.21402 | 4.22183 | 25727 ft | 405 kts | 201° |
| 2026-05-04 11:33 | 51.03701 | 4.35578 | 28739 ft | 439 kts | 143° |
| 2026-05-04 11:33 | 51.01393 | 4.38765 | 29162 ft | 440 kts | 144° |